sensor_id;sensor_type;location;lat;lon;timestamp;pressure;altitude;pressure_sealevel;temperature;humidity
42519;BME280;28147;47.520;18.920;2024-03-08T00:02:15;98736.53;;;7.35;76.67
42519;BME280;28147;47.520;18.920;2024-03-08T00:04:40;98714.69;;;7.53;75.51
42519;BME280;28147;47.520;18.920;2024-03-08T00:07:06;98734.28;;;7.52;75.22
42519;BME280;28147;47.520;18.920;2024-03-08T00:09:32;98737.31;;;7.49;75.63
42519;BME280;28147;47.520;18.920;2024-03-08T00:11:57;98730.00;;;7.44;76.71
42519;BME280;28147;47.520;18.920;2024-03-08T00:14:23;98730.41;;;7.35;77.71
42519;BME280;28147;47.520;18.920;2024-03-08T00:16:48;98734.28;;;7.39;76.96
42519;BME280;28147;47.520;18.920;2024-03-08T00:19:13;98732.25;;;7.27;76.65
42519;BME280;28147;47.520;18.920;2024-03-08T00:21:39;98722.88;;;7.18;77.24
42519;BME280;28147;47.520;18.920;2024-03-08T00:24:04;98720.84;;;7.14;76.62
42519;BME280;28147;47.520;18.920;2024-03-08T00:26:30;98729.78;;;6.99;77.30
42519;BME280;28147;47.520;18.920;2024-03-08T00:28:55;98731.22;;;7.02;78.50
42519;BME280;28147;47.520;18.920;2024-03-08T00:31:20;98733.25;;;7.13;77.79
42519;BME280;28147;47.520;18.920;2024-03-08T00:33:46;98730.19;;;7.03;78.03
42519;BME280;28147;47.520;18.920;2024-03-08T00:36:11;98734.44;;;6.84;79.42
42519;BME280;28147;47.520;18.920;2024-03-08T00:38:37;98727.75;;;7.08;78.49
42519;BME280;28147;47.520;18.920;2024-03-08T00:41:02;98732.84;;;7.23;77.76
42519;BME280;28147;47.520;18.920;2024-03-08T00:43:27;98734.88;;;7.07;78.48
42519;BME280;28147;47.520;18.920;2024-03-08T00:45:53;98723.91;;;7.17;78.32
42519;BME280;28147;47.520;18.920;2024-03-08T00:48:19;98724.31;;;7.27;77.31
42519;BME280;28147;47.520;18.920;2024-03-08T00:50:44;98729.78;;;6.99;77.61
42519;BME280;28147;47.520;18.920;2024-03-08T00:53:13;98725.91;;;6.95;77.54
42519;BME280;28147;47.520;18.920;2024-03-08T00:55:38;98722.44;;;6.95;78.35
42519;BME280;28147;47.520;18.920;2024-03-08T00:58:04;98736.28;;;6.83;79.70
42519;BME280;28147;47.520;18.920;2024-03-08T01:00:29;98723.06;;;7.30;77.87
42519;BME280;28147;47.520;18.920;2024-03-08T01:02:55;98706.78;;;7.00;77.95
42519;BME280;28147;47.520;18.920;2024-03-08T01:05:21;98714.47;;;6.68;79.39
42519;BME280;28147;47.520;18.920;2024-03-08T01:07:46;98694.78;;;6.91;79.08
42519;BME280;28147;47.520;18.920;2024-03-08T01:10:11;98716.94;;;6.96;78.68
42519;BME280;28147;47.520;18.920;2024-03-08T01:12:38;98709.13;;;6.55;80.14
42519;BME280;28147;47.520;18.920;2024-03-08T01:15:03;98717.78;;;6.90;78.03
42519;BME280;28147;47.520;18.920;2024-03-08T01:17:29;98715.53;;;6.94;77.76
42519;BME280;28147;47.520;18.920;2024-03-08T01:19:54;98713.94;;;7.13;77.24
42519;BME280;28147;47.520;18.920;2024-03-08T01:22:19;98710.66;;;7.17;76.46
42519;BME280;28147;47.520;18.920;2024-03-08T01:24:45;98708.63;;;7.32;76.05
42519;BME280;28147;47.520;18.920;2024-03-08T01:27:10;98699.25;;;7.10;76.08
42519;BME280;28147;47.520;18.920;2024-03-08T01:29:37;98708.41;;;7.07;76.39
42519;BME280;28147;47.520;18.920;2024-03-08T01:32:02;98712.28;;;7.18;76.65
42519;BME280;28147;47.520;18.920;2024-03-08T01:34:28;98701.91;;;7.17;76.61
42519;BME280;28147;47.520;18.920;2024-03-08T01:36:54;98712.28;;;7.25;77.13
42519;BME280;28147;47.520;18.920;2024-03-08T01:39:21;98711.06;;;7.14;75.59
42519;BME280;28147;47.520;18.920;2024-03-08T01:41:47;98702.91;;;6.96;75.21
42519;BME280;28147;47.520;18.920;2024-03-08T01:44:12;98709.00;;;6.96;76.38
42519;BME280;28147;47.520;18.920;2024-03-08T01:46:43;98697.16;;;6.52;77.15
42519;BME280;28147;47.520;18.920;2024-03-08T01:49:10;98705.44;;;6.29;77.77
42519;BME280;28147;47.520;18.920;2024-03-08T01:51:35;98687.09;;;6.28;78.41
42519;BME280;28147;47.520;18.920;2024-03-08T01:54:01;98684.53;;;6.61;77.57
42519;BME280;28147;47.520;18.920;2024-03-08T01:56:28;98705.53;;;6.76;77.64
42519;BME280;28147;47.520;18.920;2024-03-08T01:58:54;98708.19;;;6.82;76.92
42519;BME280;28147;47.520;18.920;2024-03-08T02:01:20;98706.16;;;6.91;76.03
42519;BME280;28147;47.520;18.920;2024-03-08T02:03:45;98703.72;;;6.90;77.08
42519;BME280;28147;47.520;18.920;2024-03-08T02:06:12;98709.00;;;6.83;76.07
42519;BME280;28147;47.520;18.920;2024-03-08T02:08:39;98705.31;;;6.77;76.89
42519;BME280;28147;47.520;18.920;2024-03-08T02:11:06;98709.03;;;6.90;76.59
42519;BME280;28147;47.520;18.920;2024-03-08T02:13:31;98704.53;;;7.03;75.93
42519;BME280;28147;47.520;18.920;2024-03-08T02:15:58;98708.72;;;6.51;76.46
42519;BME280;28147;47.520;18.920;2024-03-08T02:18:25;98706.50;;;6.62;77.61
42519;BME280;28147;47.520;18.920;2024-03-08T02:20:58;98718.19;;;6.94;76.68
42519;BME280;28147;47.520;18.920;2024-03-08T02:23:25;98713.91;;;6.86;75.67
42519;BME280;28147;47.520;18.920;2024-03-08T02:25:51;98720.41;;;6.90;75.13
42519;BME280;28147;47.520;18.920;2024-03-08T02:28:17;98716.53;;;6.86;76.08
42519;BME280;28147;47.520;18.920;2024-03-08T02:30:45;98718.63;;;7.24;74.83
42519;BME280;28147;47.520;18.920;2024-03-08T02:33:15;98715.13;;;6.90;76.15
42519;BME280;28147;47.520;18.920;2024-03-08T02:35:47;98713.09;;;6.99;75.78
42519;BME280;28147;47.520;18.920;2024-03-08T02:38:20;98706.56;;;6.95;74.89
42519;BME280;28147;47.520;18.920;2024-03-08T02:40:46;98699.84;;;6.92;75.60
42519;BME280;28147;47.520;18.920;2024-03-08T02:43:13;98714.72;;;7.00;74.87
42519;BME280;28147;47.520;18.920;2024-03-08T02:45:39;98714.94;;;6.98;74.56
42519;BME280;28147;47.520;18.920;2024-03-08T02:48:05;98710.22;;;7.27;73.54
42519;BME280;28147;47.520;18.920;2024-03-08T02:50:33;98714.34;;;7.16;74.90
42519;BME280;28147;47.520;18.920;2024-03-08T02:53:03;98715.34;;;7.28;75.04
42519;BME280;28147;47.520;18.920;2024-03-08T02:55:29;98699.84;;;7.25;74.58
42519;BME280;28147;47.520;18.920;2024-03-08T02:57:54;98715.53;;;7.40;74.09
42519;BME280;28147;47.520;18.920;2024-03-08T03:00:20;98717.38;;;7.20;74.44
42519;BME280;28147;47.520;18.920;2024-03-08T03:02:50;98714.75;;;7.20;74.71
42519;BME280;28147;47.520;18.920;2024-03-08T03:05:22;98721.44;;;7.02;75.55
42519;BME280;28147;47.520;18.920;2024-03-08T03:07:48;98716.75;;;7.18;75.26
42519;BME280;28147;47.520;18.920;2024-03-08T03:10:14;98722.88;;;7.31;74.88
42519;BME280;28147;47.520;18.920;2024-03-08T03:12:42;98719.59;;;7.23;75.00
42519;BME280;28147;47.520;18.920;2024-03-08T03:15:08;98699.47;;;7.09;74.93
42519;BME280;28147;47.520;18.920;2024-03-08T03:17:33;98709.03;;;7.16;75.07
42519;BME280;28147;47.520;18.920;2024-03-08T03:19:58;98717.38;;;7.13;75.34
42519;BME280;28147;47.520;18.920;2024-03-08T03:22:24;98726.97;;;7.21;74.94
42519;BME280;28147;47.520;18.920;2024-03-08T03:24:50;98723.09;;;7.43;74.34
42519;BME280;28147;47.520;18.920;2024-03-08T03:27:17;98725.72;;;7.30;75.21
42519;BME280;28147;47.520;18.920;2024-03-08T03:29:43;98712.69;;;6.82;76.17
42519;BME280;28147;47.520;18.920;2024-03-08T03:32:12;98722.25;;;7.03;76.21
42519;BME280;28147;47.520;18.920;2024-03-08T03:34:38;98729.19;;;7.11;76.01
42519;BME280;28147;47.520;18.920;2024-03-08T03:37:04;98729.78;;;7.06;76.19
42519;BME280;28147;47.520;18.920;2024-03-08T03:39:30;98721.03;;;7.12;76.41
42519;BME280;28147;47.520;18.920;2024-03-08T03:42:14;98733.28;;;7.20;76.42
42519;BME280;28147;47.520;18.920;2024-03-08T03:44:40;98723.69;;;7.25;75.97
42519;BME280;28147;47.520;18.920;2024-03-08T03:47:05;98732.44;;;6.99;77.54
42519;BME280;28147;47.520;18.920;2024-03-08T03:49:32;98728.16;;;6.98;77.41
42519;BME280;28147;47.520;18.920;2024-03-08T03:51:58;98728.94;;;6.72;78.63
42519;BME280;28147;47.520;18.920;2024-03-08T03:54:23;98729.78;;;6.93;77.67
42519;BME280;28147;47.520;18.920;2024-03-08T03:56:49;98733.06;;;7.21;76.86
42519;BME280;28147;47.520;18.920;2024-03-08T03:59:18;98726.94;;;7.14;77.12
42519;BME280;28147;47.520;18.920;2024-03-08T04:01:43;98740.16;;;6.88;77.88
42519;BME280;28147;47.520;18.920;2024-03-08T04:04:08;98719.56;;;6.76;78.54
42519;BME280;28147;47.520;18.920;2024-03-08T04:06:34;98714.31;;;7.03;77.17
42519;BME280;28147;47.520;18.920;2024-03-08T04:08:59;98733.25;;;7.06;76.57
42519;BME280;28147;47.520;18.920;2024-03-08T04:11:24;98734.28;;;7.19;76.30
42519;BME280;28147;47.520;18.920;2024-03-08T04:13:50;98709.31;;;6.47;78.32
42519;BME280;28147;47.520;18.920;2024-03-08T04:16:15;98721.78;;;6.66;77.64
42519;BME280;28147;47.520;18.920;2024-03-08T04:18:40;98721.22;;;6.84;77.39
42519;BME280;28147;47.520;18.920;2024-03-08T04:21:06;98732.56;;;6.58;78.64
42519;BME280;28147;47.520;18.920;2024-03-08T04:23:34;98724.88;;;6.76;77.80
42519;BME280;28147;47.520;18.920;2024-03-08T04:26:03;98713.06;;;6.79;77.37
42519;BME280;28147;47.520;18.920;2024-03-08T04:28:29;98730.97;;;6.77;77.42
42519;BME280;28147;47.520;18.920;2024-03-08T04:30:55;98731.00;;;6.90;76.62
42519;BME280;28147;47.520;18.920;2024-03-08T04:33:20;98725.72;;;6.90;76.72
42519;BME280;28147;47.520;18.920;2024-03-08T04:35:47;98721.44;;;7.02;76.30
42519;BME280;28147;47.520;18.920;2024-03-08T04:38:12;98729.97;;;6.91;76.24
42519;BME280;28147;47.520;18.920;2024-03-08T04:40:37;98733.06;;;7.01;75.33
42519;BME280;28147;47.520;18.920;2024-03-08T04:43:03;98713.88;;;6.79;76.46
42519;BME280;28147;47.520;18.920;2024-03-08T04:45:28;98726.91;;;6.88;75.93
42519;BME280;28147;47.520;18.920;2024-03-08T04:47:54;98725.72;;;7.03;75.50
42519;BME280;28147;47.520;18.920;2024-03-08T04:50:19;98737.09;;;7.04;75.79
42519;BME280;28147;47.520;18.920;2024-03-08T04:52:44;98735.69;;;7.15;75.57
42519;BME280;28147;47.520;18.920;2024-03-08T04:55:10;98733.84;;;6.82;75.89
42519;BME280;28147;47.520;18.920;2024-03-08T04:57:35;98732.44;;;6.86;76.72
42519;BME280;28147;47.520;18.920;2024-03-08T05:00:03;98735.50;;;7.03;75.69
42519;BME280;28147;47.520;18.920;2024-03-08T05:02:35;98732.84;;;7.10;75.30
42519;BME280;28147;47.520;18.920;2024-03-08T05:05:01;98734.09;;;7.20;74.39
42519;BME280;28147;47.520;18.920;2024-03-08T05:07:27;98712.69;;;7.02;74.79
42519;BME280;28147;47.520;18.920;2024-03-08T05:09:52;98734.66;;;6.89;75.53
42519;BME280;28147;47.520;18.920;2024-03-08T05:12:18;98731.09;;;6.49;77.21
42519;BME280;28147;47.520;18.920;2024-03-08T05:14:45;98736.25;;;6.64;76.48
42519;BME280;28147;47.520;18.920;2024-03-08T05:17:12;98733.81;;;6.69;77.19
42519;BME280;28147;47.520;18.920;2024-03-08T05:19:38;98743.94;;;6.52;77.88
42519;BME280;28147;47.520;18.920;2024-03-08T05:22:03;98728.28;;;6.57;77.59
42519;BME280;28147;47.520;18.920;2024-03-08T05:24:29;98734.00;;;6.67;77.31
42519;BME280;28147;47.520;18.920;2024-03-08T05:26:55;98735.50;;;6.90;77.41
42519;BME280;28147;47.520;18.920;2024-03-08T05:29:20;98743.00;;;6.93;77.28
42519;BME280;28147;47.520;18.920;2024-03-08T05:31:47;98748.72;;;7.03;77.09
42519;BME280;28147;47.520;18.920;2024-03-08T05:34:14;98748.34;;;7.13;75.87
42519;BME280;28147;47.520;18.920;2024-03-08T05:36:40;98751.94;;;6.85;76.45
42519;BME280;28147;47.520;18.920;2024-03-08T05:39:06;98733.22;;;6.80;76.44
42519;BME280;28147;47.520;18.920;2024-03-08T05:41:32;98748.31;;;7.06;76.07
42519;BME280;28147;47.520;18.920;2024-03-08T05:43:57;98749.72;;;6.89;75.89
42519;BME280;28147;47.520;18.920;2024-03-08T05:46:23;98746.50;;;6.93;75.19
42519;BME280;28147;47.520;18.920;2024-03-08T05:48:48;98755.03;;;6.95;76.16
42519;BME280;28147;47.520;18.920;2024-03-08T05:51:13;98763.34;;;6.92;76.17
42519;BME280;28147;47.520;18.920;2024-03-08T05:53:38;98760.94;;;6.91;75.49
42519;BME280;28147;47.520;18.920;2024-03-08T05:56:04;98755.03;;;6.95;75.68
42519;BME280;28147;47.520;18.920;2024-03-08T05:58:29;98771.53;;;6.97;75.85
42519;BME280;28147;47.520;18.920;2024-03-08T06:00:57;98761.34;;;7.07;75.42
42519;BME280;28147;47.520;18.920;2024-03-08T06:03:23;98771.75;;;7.16;74.68
42519;BME280;28147;47.520;18.920;2024-03-08T06:05:49;98777.03;;;7.02;75.64
42519;BME280;28147;47.520;18.920;2024-03-08T06:08:14;98767.00;;;6.85;75.68
42519;BME280;28147;47.520;18.920;2024-03-08T06:10:40;98779.25;;;6.92;76.24
42519;BME280;28147;47.520;18.920;2024-03-08T06:13:06;98777.03;;;7.09;75.51
42519;BME280;28147;47.520;18.920;2024-03-08T06:15:31;98766.03;;;6.99;75.32
42519;BME280;28147;47.520;18.920;2024-03-08T06:17:57;98772.47;;;6.63;77.55
42519;BME280;28147;47.520;18.920;2024-03-08T06:20:22;98787.75;;;6.74;77.11
42519;BME280;28147;47.520;18.920;2024-03-08T06:22:51;98775.97;;;6.83;77.52
42519;BME280;28147;47.520;18.920;2024-03-08T06:25:17;98778.03;;;6.95;76.49
42519;BME280;28147;47.520;18.920;2024-03-08T06:27:43;98782.13;;;6.97;75.93
42519;BME280;28147;47.520;18.920;2024-03-08T06:30:09;98785.13;;;6.81;76.81
42519;BME280;28147;47.520;18.920;2024-03-08T06:32:35;98775.38;;;6.95;76.46
42519;BME280;28147;47.520;18.920;2024-03-08T06:35:02;98785.75;;;6.96;76.14
42519;BME280;28147;47.520;18.920;2024-03-08T06:37:27;98785.16;;;6.94;76.27
42519;BME280;28147;47.520;18.920;2024-03-08T06:39:53;98775.28;;;6.62;77.39
42519;BME280;28147;47.520;18.920;2024-03-08T06:42:20;98790.44;;;6.94;77.55
42519;BME280;28147;47.520;18.920;2024-03-08T06:44:45;98789.50;;;6.54;78.28
42519;BME280;28147;47.520;18.920;2024-03-08T06:47:15;98785.09;;;6.68;78.33
42519;BME280;28147;47.520;18.920;2024-03-08T06:49:41;98796.31;;;6.83;78.11
42519;BME280;28147;47.520;18.920;2024-03-08T06:52:07;98790.06;;;6.97;77.13
42519;BME280;28147;47.520;18.920;2024-03-08T06:54:34;98792.69;;;6.97;76.84
42519;BME280;28147;47.520;18.920;2024-03-08T06:57:01;98801.34;;;6.65;78.46
42519;BME280;28147;47.520;18.920;2024-03-08T06:59:28;98801.66;;;7.03;77.96
42519;BME280;28147;47.520;18.920;2024-03-08T07:01:53;98795.34;;;6.97;78.04
42519;BME280;28147;47.520;18.920;2024-03-08T07:04:19;98789.28;;;6.49;80.14
42519;BME280;28147;47.520;18.920;2024-03-08T07:06:45;98806.34;;;6.94;79.66
42519;BME280;28147;47.520;18.920;2024-03-08T07:09:10;98800.28;;;7.20;78.32
42519;BME280;28147;47.520;18.920;2024-03-08T07:11:37;98803.13;;;7.45;81.06
42519;BME280;28147;47.520;18.920;2024-03-08T07:14:02;98782.56;;;7.61;78.00
42519;BME280;28147;47.520;18.920;2024-03-08T07:16:30;98798.63;;;7.13;77.18
42519;BME280;28147;47.520;18.920;2024-03-08T07:18:56;98785.56;;;6.91;78.74
42519;BME280;28147;47.520;18.920;2024-03-08T07:21:24;98800.06;;;7.09;77.62
42519;BME280;28147;47.520;18.920;2024-03-08T07:23:49;98800.47;;;7.19;78.83
42519;BME280;28147;47.520;18.920;2024-03-08T07:26:27;98791.09;;;7.10;78.43
42519;BME280;28147;47.520;18.920;2024-03-08T07:28:52;98787.22;;;7.12;77.89
42519;BME280;28147;47.520;18.920;2024-03-08T07:31:20;98798.84;;;7.18;77.93
42519;BME280;28147;47.520;18.920;2024-03-08T07:33:51;98802.06;;;6.93;78.69
42519;BME280;28147;47.520;18.920;2024-03-08T07:36:18;98803.50;;;7.16;78.39
42519;BME280;28147;47.520;18.920;2024-03-08T07:38:44;98815.34;;;7.20;78.42
42519;BME280;28147;47.520;18.920;2024-03-08T07:41:12;98806.75;;;7.04;78.74
42519;BME280;28147;47.520;18.920;2024-03-08T07:43:38;98820.22;;;6.55;80.93
42519;BME280;28147;47.520;18.920;2024-03-08T07:46:03;98795.03;;;6.66;81.32
42519;BME280;28147;47.520;18.920;2024-03-08T07:48:29;98811.53;;;6.68;80.56
42519;BME280;28147;47.520;18.920;2024-03-08T07:50:55;98817.84;;;6.67;81.27
42519;BME280;28147;47.520;18.920;2024-03-08T07:53:21;98818.09;;;6.78;80.60
42519;BME280;28147;47.520;18.920;2024-03-08T07:55:46;98812.31;;;6.62;81.21
42519;BME280;28147;47.520;18.920;2024-03-08T07:58:11;98804.03;;;6.78;80.61
42519;BME280;28147;47.520;18.920;2024-03-08T08:00:38;98818.53;;;6.95;79.59
42519;BME280;28147;47.520;18.920;2024-03-08T08:03:04;98792.50;;;7.05;78.72
42519;BME280;28147;47.520;18.920;2024-03-08T08:05:30;98814.75;;;7.24;78.70
42519;BME280;28147;47.520;18.920;2024-03-08T08:08:00;98814.53;;;7.32;78.38
42519;BME280;28147;47.520;18.920;2024-03-08T08:10:25;98805.34;;;7.22;79.06
42519;BME280;28147;47.520;18.920;2024-03-08T08:12:51;98816.19;;;7.47;78.68
42519;BME280;28147;47.520;18.920;2024-03-08T08:15:17;98789.47;;;7.09;79.14
42519;BME280;28147;47.520;18.920;2024-03-08T08:17:43;98814.13;;;7.29;79.02
42519;BME280;28147;47.520;18.920;2024-03-08T08:20:11;98812.81;;;6.85;80.93
42519;BME280;28147;47.520;18.920;2024-03-08T08:22:37;98805.66;;;6.72;81.66
42519;BME280;28147;47.520;18.920;2024-03-08T08:25:04;98810.00;;;6.93;80.74
42519;BME280;28147;47.520;18.920;2024-03-08T08:27:30;98783.28;;;6.81;80.96
42519;BME280;28147;47.520;18.920;2024-03-08T08:29:55;98813.88;;;7.11;81.36
42519;BME280;28147;47.520;18.920;2024-03-08T08:32:21;98825.06;;;6.99;80.96
42519;BME280;28147;47.520;18.920;2024-03-08T08:34:46;98818.72;;;6.87;80.95
42519;BME280;28147;47.520;18.920;2024-03-08T08:37:12;98806.38;;;6.12;84.46
42519;BME280;28147;47.520;18.920;2024-03-08T08:39:37;98801.19;;;6.31;85.27
42519;BME280;28147;47.520;18.920;2024-03-08T08:42:03;98813.13;;;6.21;85.10
42519;BME280;28147;47.520;18.920;2024-03-08T08:44:28;98819.69;;;6.73;82.93
42519;BME280;28147;47.520;18.920;2024-03-08T08:46:55;98815.50;;;6.98;82.99
42519;BME280;28147;47.520;18.920;2024-03-08T08:49:21;98815.34;;;7.26;81.80
42519;BME280;28147;47.520;18.920;2024-03-08T08:51:49;98817.63;;;7.43;80.49
42519;BME280;28147;47.520;18.920;2024-03-08T08:54:15;98797.34;;;6.89;81.72
42519;BME280;28147;47.520;18.920;2024-03-08T08:56:42;98814.34;;;7.34;80.52
42519;BME280;28147;47.520;18.920;2024-03-08T08:59:09;98801.72;;;7.49;79.19
42519;BME280;28147;47.520;18.920;2024-03-08T09:01:34;98809.25;;;7.32;79.08
42519;BME280;28147;47.520;18.920;2024-03-08T09:04:00;98814.13;;;7.22;80.65
42519;BME280;28147;47.520;18.920;2024-03-08T09:06:25;98815.94;;;7.15;81.51
42519;BME280;28147;47.520;18.920;2024-03-08T09:08:51;98806.34;;;7.07;81.14
42519;BME280;28147;47.520;18.920;2024-03-08T09:11:16;98822.03;;;7.16;82.12
42519;BME280;28147;47.520;18.920;2024-03-08T09:13:44;98810.88;;;7.40;81.04
42519;BME280;28147;47.520;18.920;2024-03-08T09:16:11;98817.75;;;7.15;81.58
42519;BME280;28147;47.520;18.920;2024-03-08T09:18:36;98816.03;;;6.74;84.33
42519;BME280;28147;47.520;18.920;2024-03-08T09:21:01;98802.78;;;6.74;83.63
42519;BME280;28147;47.520;18.920;2024-03-08T09:23:28;98803.75;;;7.27;82.86
42519;BME280;28147;47.520;18.920;2024-03-08T09:25:56;98812.53;;;7.48;81.68
42519;BME280;28147;47.520;18.920;2024-03-08T09:28:23;98800.50;;;7.52;81.03
42519;BME280;28147;47.520;18.920;2024-03-08T09:30:48;98813.97;;;7.50;81.41
42519;BME280;28147;47.520;18.920;2024-03-08T09:33:14;98820.47;;;7.54;82.01
42519;BME280;28147;47.520;18.920;2024-03-08T09:35:44;98825.16;;;7.59;81.91
42519;BME280;28147;47.520;18.920;2024-03-08T09:38:12;98802.72;;;7.48;82.48
42519;BME280;28147;47.520;18.920;2024-03-08T09:40:38;98817.41;;;7.64;82.33
42519;BME280;28147;47.520;18.920;2024-03-08T09:43:04;98806.00;;;7.77;81.73
42519;BME280;28147;47.520;18.920;2024-03-08T09:45:31;98808.84;;;7.89;80.23
42519;BME280;28147;47.520;18.920;2024-03-08T09:48:01;98804.75;;;7.99;79.69
42519;BME280;28147;47.520;18.920;2024-03-08T09:50:26;98814.97;;;7.96;80.21
42519;BME280;28147;47.520;18.920;2024-03-08T09:52:53;98822.69;;;8.11;78.60
42519;BME280;28147;47.520;18.920;2024-03-08T09:55:22;98821.91;;;7.77;80.25
42519;BME280;28147;47.520;18.920;2024-03-08T09:57:48;98820.47;;;7.81;79.99
42519;BME280;28147;47.520;18.920;2024-03-08T10:00:33;98831.28;;;7.73;79.62
42519;BME280;28147;47.520;18.920;2024-03-08T10:03:02;98823.72;;;7.96;79.70
42519;BME280;28147;47.520;18.920;2024-03-08T10:05:28;98836.16;;;7.89;79.10
42519;BME280;28147;47.520;18.920;2024-03-08T10:07:55;98829.63;;;7.85;80.26
42519;BME280;28147;47.520;18.920;2024-03-08T10:10:20;98829.66;;;7.65;80.60
42519;BME280;28147;47.520;18.920;2024-03-08T10:12:47;98826.59;;;7.62;81.21
42519;BME280;28147;47.520;18.920;2024-03-08T10:15:16;98836.78;;;7.85;80.66
42519;BME280;28147;47.520;18.920;2024-03-08T10:17:42;98833.09;;;7.92;80.61
42519;BME280;28147;47.520;18.920;2024-03-08T10:20:18;98829.59;;;8.12;79.83
42519;BME280;28147;47.520;18.920;2024-03-08T10:22:44;98826.53;;;8.15;79.77
42519;BME280;28147;47.520;18.920;2024-03-08T10:25:11;98833.03;;;8.32;79.72
42519;BME280;28147;47.520;18.920;2024-03-08T10:27:40;98828.34;;;8.21;78.77
42519;BME280;28147;47.520;18.920;2024-03-08T10:30:10;98812.91;;;7.91;79.75
42519;BME280;28147;47.520;18.920;2024-03-08T10:32:35;98834.28;;;8.23;79.07
42519;BME280;28147;47.520;18.920;2024-03-08T10:35:01;98818.72;;;8.33;78.39
42519;BME280;28147;47.520;18.920;2024-03-08T10:37:27;98813.00;;;8.49;78.22
42519;BME280;28147;47.520;18.920;2024-03-08T10:40:02;98827.41;;;8.67;76.95
42519;BME280;28147;47.520;18.920;2024-03-08T10:42:40;98820.97;;;8.49;78.41
42519;BME280;28147;47.520;18.920;2024-03-08T10:48:29;98821.59;;;8.25;79.27
42519;BME280;28147;47.520;18.920;2024-03-08T10:51:04;98819.75;;;8.32;78.15
42519;BME280;28147;47.520;18.920;2024-03-08T10:53:30;98811.19;;;8.43;79.02
42519;BME280;28147;47.520;18.920;2024-03-08T10:55:57;98805.59;;;8.65;77.67
42519;BME280;28147;47.520;18.920;2024-03-08T10:58:24;98815.44;;;8.96;75.04
42519;BME280;28147;47.520;18.920;2024-03-08T11:00:53;98810.59;;;8.86;75.97
42519;BME280;28147;47.520;18.920;2024-03-08T11:06:07;98814.84;;;8.49;76.24
42519;BME280;28147;47.520;18.920;2024-03-08T11:08:35;98809.09;;;8.59;76.16
42519;BME280;28147;47.520;18.920;2024-03-08T11:11:01;98801.97;;;8.52;75.42
42519;BME280;28147;47.520;18.920;2024-03-08T11:13:40;98809.16;;;8.32;76.77
42519;BME280;28147;47.520;18.920;2024-03-08T11:16:10;98810.38;;;8.43;77.17
42519;BME280;28147;47.520;18.920;2024-03-08T11:18:36;98801.19;;;8.45;76.45
42519;BME280;28147;47.520;18.920;2024-03-08T11:21:03;98808.25;;;8.65;75.79
42519;BME280;28147;47.520;18.920;2024-03-08T11:23:32;98800.44;;;8.12;78.01
42519;BME280;28147;47.520;18.920;2024-03-08T11:25:59;98786.00;;;7.81;79.86
42519;BME280;28147;47.520;18.920;2024-03-08T11:28:24;98804.53;;;7.94;78.68
42519;BME280;28147;47.520;18.920;2024-03-08T11:33:26;98797.63;;;7.93;78.53
42519;BME280;28147;47.520;18.920;2024-03-08T11:36:02;98800.22;;;8.13;78.69
42519;BME280;28147;47.520;18.920;2024-03-08T11:38:29;98791.63;;;8.18;78.98
42519;BME280;28147;47.520;18.920;2024-03-08T11:40:56;98803.09;;;8.05;78.53
42519;BME280;28147;47.520;18.920;2024-03-08T11:43:22;98786.63;;;7.70;80.10
42519;BME280;28147;47.520;18.920;2024-03-08T11:45:48;98789.06;;;7.78;80.03
42519;BME280;28147;47.520;18.920;2024-03-08T11:48:16;98784.78;;;7.84;80.24
42519;BME280;28147;47.520;18.920;2024-03-08T11:50:42;98786.00;;;7.35;81.44
42519;BME280;28147;47.520;18.920;2024-03-08T11:53:08;98779.91;;;7.80;81.38
42519;BME280;28147;47.520;18.920;2024-03-08T11:55:33;98789.03;;;7.91;80.35
42519;BME280;28147;47.520;18.920;2024-03-08T11:58:04;98782.75;;;7.92;80.61
42519;BME280;28147;47.520;18.920;2024-03-08T12:00:30;98785.97;;;7.94;80.65
42519;BME280;28147;47.520;18.920;2024-03-08T12:03:08;98784.47;;;8.45;78.59
42519;BME280;28147;47.520;18.920;2024-03-08T12:05:37;98777.63;;;8.69;77.43
42519;BME280;28147;47.520;18.920;2024-03-08T12:08:04;98782.63;;;8.32;76.98
42519;BME280;28147;47.520;18.920;2024-03-08T12:10:32;98775.94;;;8.10;76.94
42519;BME280;28147;47.520;18.920;2024-03-08T12:12:59;98772.09;;;8.12;76.45
42519;BME280;28147;47.520;18.920;2024-03-08T12:15:25;98767.50;;;8.52;76.17
42519;BME280;28147;47.520;18.920;2024-03-08T12:17:53;98768.66;;;8.63;74.96
42519;BME280;28147;47.520;18.920;2024-03-08T12:20:21;98772.34;;;8.62;75.19
42519;BME280;28147;47.520;18.920;2024-03-08T12:22:48;98765.16;;;8.69;75.31
42519;BME280;28147;47.520;18.920;2024-03-08T12:25:14;98766.72;;;8.39;75.26
42519;BME280;28147;47.520;18.920;2024-03-08T12:27:41;98761.00;;;8.28;76.16
42519;BME280;28147;47.520;18.920;2024-03-08T12:30:19;98770.47;;;8.11;76.98
42519;BME280;28147;47.520;18.920;2024-03-08T12:32:51;98760.03;;;8.23;76.06
42519;BME280;28147;47.520;18.920;2024-03-08T12:35:21;98754.25;;;8.33;75.99
42519;BME280;28147;47.520;18.920;2024-03-08T12:37:52;98767.91;;;8.36;75.62
42519;BME280;28147;47.520;18.920;2024-03-08T12:40:19;98763.91;;;8.20;74.87
42519;BME280;28147;47.520;18.920;2024-03-08T12:42:45;98758.75;;;8.25;74.36
42519;BME280;28147;47.520;18.920;2024-03-08T12:45:13;98755.13;;;8.26;75.70
42519;BME280;28147;47.520;18.920;2024-03-08T12:47:38;98760.25;;;8.15;75.06
42519;BME280;28147;47.520;18.920;2024-03-08T12:50:03;98753.19;;;8.53;74.89
42519;BME280;28147;47.520;18.920;2024-03-08T12:52:29;98761.41;;;8.45;75.58
42519;BME280;28147;47.520;18.920;2024-03-08T12:54:55;98757.53;;;8.35;74.61
42519;BME280;28147;47.520;18.920;2024-03-08T12:57:20;98757.53;;;8.28;75.07
42519;BME280;28147;47.520;18.920;2024-03-08T12:59:46;98762.25;;;8.26;76.58
42519;BME280;28147;47.520;18.920;2024-03-08T13:02:11;98753.84;;;8.36;76.26
42519;BME280;28147;47.520;18.920;2024-03-08T13:04:36;98750.84;;;8.19;78.04
42519;BME280;28147;47.520;18.920;2024-03-08T13:07:02;98741.94;;;7.93;77.44